Time;durP1;ratioP1;P1;durP2;ratioP2;P2;SDS_P1;SDS_P2;PMS_P1;PMS_P2;Temp;Humidity;BMP_temperature;BMP_pressure;BME280_temperature;BME280_humidity;BME280_pressure;Samples;Min_cycle;Max_cycle;Signal;HPM_P1;HPM_P2
2021/12/29 00:00:06;;;;;;;0.40;0.40;;;4.00;99.90;;;;;;5075964;28;20431;-70
2021/12/29 00:02:53;;;;;;;0.40;0.40;;;3.80;99.90;;;;;;5056277;28;20459;-70
2021/12/29 00:05:40;;;;;;;0.40;0.40;;;3.80;99.90;;;;;;5055161;28;21014;-70
2021/12/29 00:08:27;;;;;;;0.40;0.40;;;3.80;99.90;;;;;;5054615;28;20429;-70
2021/12/29 00:11:14;;;;;;;0.50;0.50;;;3.80;99.90;;;;;;5055028;28;20420;-70
2021/12/29 00:14:03;;;;;;;0.43;0.43;;;3.90;99.90;;;;;;5054654;28;20451;-70
2021/12/29 00:16:50;;;;;;;0.40;0.40;;;3.80;99.90;;;;;;5054817;28;20432;-70
2021/12/29 00:19:37;;;;;;;2.30;2.20;;;3.90;99.90;;;;;;5053631;28;20431;-70
2021/12/29 00:22:24;;;;;;;0.50;0.50;;;3.90;99.90;;;;;;5054754;28;20440;-70
2021/12/29 00:25:12;;;;;;;0.40;0.40;;;3.90;99.90;;;;;;5054783;28;20963;-70
2021/12/29 00:28:00;;;;;;;0.43;0.43;;;4.00;99.90;;;;;;5054758;28;20428;-70
2021/12/29 00:30:49;;;;;;;0.40;0.40;;;4.00;99.90;;;;;;5059972;28;20420;-70
2021/12/29 00:33:36;;;;;;;0.40;0.40;;;4.00;99.90;;;;;;5064861;28;20502;-71
2021/12/29 00:36:23;;;;;;;0.40;0.40;;;4.00;99.90;;;;;;5064474;28;20928;-70
2021/12/29 00:39:10;;;;;;;0.40;0.40;;;4.10;99.90;;;;;;5062287;28;20421;-70
2021/12/29 00:41:57;;;;;;;0.70;0.70;;;4.00;99.90;;;;;;5060571;28;20428;-70
2021/12/29 00:44:44;;;;;;;1.23;1.23;;;3.90;99.90;;;;;;5060795;28;20435;-70
2021/12/29 00:47:34;;;;;;;0.40;0.40;;;3.90;99.90;;;;;;5055608;28;20463;-70
2021/12/29 00:50:21;;;;;;;0.40;0.40;;;3.90;99.90;;;;;;5054408;28;20439;-70
2021/12/29 00:53:08;;;;;;;0.40;0.40;;;3.80;99.90;;;;;;5054242;28;20447;-70
2021/12/29 00:55:55;;;;;;;0.40;0.40;;;3.80;99.90;;;;;;5053621;28;20424;-70
2021/12/29 00:58:43;;;;;;;0.40;0.40;;;3.80;99.90;;;;;;5053882;28;20517;-70
2021/12/29 01:01:30;;;;;;;0.40;0.40;;;3.80;99.90;;;;;;5064631;28;20427;-70
2021/12/29 01:04:18;;;;;;;0.40;0.40;;;3.80;99.90;;;;;;5075327;28;20419;-71
2021/12/29 01:07:06;;;;;;;0.40;0.40;;;3.90;99.90;;;;;;5074318;28;20459;-70
2021/12/29 01:09:53;;;;;;;0.40;0.40;;;3.80;99.90;;;;;;5074885;28;20434;-70
2021/12/29 01:12:46;;;;;;;0.40;0.40;;;3.80;99.90;;;;;;5074655;28;20450;-70
2021/12/29 01:15:47;;;;;;;0.40;0.40;;;3.90;99.90;;;;;;5075110;28;20419;-70
2021/12/29 01:18:36;;;;;;;0.40;0.40;;;3.80;99.90;;;;;;5074628;28;20950;-70
2021/12/29 01:21:24;;;;;;;0.40;0.40;;;3.80;99.90;;;;;;5076224;28;20435;-70
2021/12/29 01:24:11;;;;;;;0.40;0.40;;;3.80;99.90;;;;;;5074343;28;20420;-70
2021/12/29 01:26:59;;;;;;;0.40;0.40;;;3.80;99.90;;;;;;5074221;28;20465;-70
2021/12/29 01:29:47;;;;;;;0.50;0.50;;;3.60;99.90;;;;;;5074153;28;20427;-70
2021/12/29 01:32:34;;;;;;;0.40;0.40;;;3.60;99.90;;;;;;5074811;28;20467;-70
2021/12/29 01:35:21;;;;;;;0.40;0.40;;;3.60;99.90;;;;;;5074753;28;20427;-70
2021/12/29 01:38:10;;;;;;;0.40;0.40;;;3.60;99.90;;;;;;5074713;28;20422;-70
2021/12/29 01:40:57;;;;;;;0.40;0.40;;;3.80;99.90;;;;;;5074425;28;20936;-70
2021/12/29 01:43:44;;;;;;;0.40;0.40;;;3.80;99.90;;;;;;5074375;28;20450;-70
2021/12/29 01:46:32;;;;;;;0.40;0.40;;;3.90;99.90;;;;;;5074293;28;20459;-70
2021/12/29 01:49:18;;;;;;;0.40;0.40;;;3.90;99.90;;;;;;5073798;28;20428;-70
2021/12/29 01:52:12;;;;;;;0.50;0.50;;;3.90;99.90;;;;;;5074522;28;20447;-71
2021/12/29 01:55:00;;;;;;;0.40;0.40;;;3.90;99.90;;;;;;5074139;28;20940;-70
2021/12/29 01:57:47;;;;;;;0.50;0.50;;;3.90;99.90;;;;;;5074047;28;20422;-73
2021/12/29 02:00:36;;;;;;;0.40;0.40;;;4.10;99.90;;;;;;5070124;28;20474;-70
2021/12/29 02:03:23;;;;;;;0.50;0.50;;;4.00;99.90;;;;;;5052928;28;21045;-70
2021/12/29 02:06:10;;;;;;;0.40;0.40;;;4.00;99.90;;;;;;5062550;28;20853;-71
2021/12/29 02:08:58;;;;;;;1.00;1.00;;;4.00;99.90;;;;;;5074018;28;20430;-70
2021/12/29 02:11:48;;;;;;;0.40;0.40;;;4.00;99.90;;;;;;5062758;28;20436;-71
2021/12/29 02:14:35;;;;;;;0.40;0.40;;;4.10;99.90;;;;;;5072815;28;20427;-70
2021/12/29 02:17:22;;;;;;;0.40;0.40;;;4.10;99.90;;;;;;5074264;28;20419;-70
2021/12/29 02:20:12;;;;;;;0.40;0.40;;;4.20;99.90;;;;;;5074948;28;20427;-70
2021/12/29 02:23:12;;;;;;;0.50;0.50;;;4.10;99.90;;;;;;5073902;28;20447;-70
2021/12/29 02:25:59;;;;;;;0.40;0.40;;;4.10;99.90;;;;;;5074393;28;20442;-70
2021/12/29 02:28:46;;;;;;;0.50;0.50;;;4.20;99.90;;;;;;5073717;28;20419;-70
2021/12/29 02:31:36;;;;;;;0.40;0.40;;;4.10;99.90;;;;;;5075151;28;21051;-70
2021/12/29 02:34:23;;;;;;;1.47;1.47;;;4.20;99.90;;;;;;5073785;28;20419;-70
2021/12/29 02:37:18;;;;;;;0.40;0.40;;;4.30;99.90;;;;;;5073652;28;21054;-71
2021/12/29 02:40:07;;;;;;;0.40;0.40;;;4.20;99.90;;;;;;5073308;28;20429;-70
2021/12/29 02:42:54;;;;;;;0.40;0.40;;;4.20;99.90;;;;;;5072637;28;20443;-70
2021/12/29 02:45:40;;;;;;;0.40;0.40;;;4.20;99.90;;;;;;5073623;28;20419;-70
2021/12/29 02:48:30;;;;;;;0.50;0.50;;;4.20;99.90;;;;;;5073162;28;20882;-70
2021/12/29 02:51:17;;;;;;;0.40;0.40;;;4.30;99.90;;;;;;5073856;28;20998;-70
2021/12/29 02:54:05;;;;;;;0.40;0.40;;;4.30;99.90;;;;;;5073248;28;20444;-71
2021/12/29 02:56:54;;;;;;;0.40;0.40;;;4.30;99.90;;;;;;5073089;28;20415;-70
2021/12/29 02:59:41;;;;;;;0.77;0.77;;;4.30;99.90;;;;;;5073235;28;20428;-70
2021/12/29 03:02:28;;;;;;;1.37;1.37;;;4.30;99.90;;;;;;5054512;28;20475;-70
2021/12/29 03:05:15;;;;;;;0.40;0.40;;;4.30;99.90;;;;;;5052861;28;20509;-71
2021/12/29 03:08:02;;;;;;;0.40;0.40;;;4.40;99.90;;;;;;5052620;28;20460;-70
2021/12/29 03:10:52;;;;;;;2.87;1.90;;;4.30;99.90;;;;;;5052422;28;20427;-70
2021/12/29 03:13:41;;;;;;;0.40;0.40;;;4.20;99.90;;;;;;5052854;28;20444;-71
2021/12/29 03:16:29;;;;;;;0.40;0.40;;;3.90;99.90;;;;;;5051619;28;20420;-70
2021/12/29 03:19:16;;;;;;;0.40;0.40;;;3.60;99.90;;;;;;5058001;28;20427;-71
2021/12/29 03:22:03;;;;;;;1.27;1.27;;;3.40;99.90;;;;;;5067223;28;20493;-72
2021/12/29 03:24:50;;;;;;;0.40;0.40;;;3.20;99.90;;;;;;5067244;28;20427;-71
2021/12/29 03:27:39;;;;;;;3.53;3.27;;;2.90;99.90;;;;;;5066726;28;20500;-72
2021/12/29 03:30:27;;;;;;;0.40;0.40;;;2.80;99.90;;;;;;5065119;28;20812;-72
2021/12/29 03:33:14;;;;;;;0.40;0.40;;;2.80;99.90;;;;;;5056784;28;20444;-70
2021/12/29 03:36:04;;;;;;;0.50;0.50;;;2.70;99.90;;;;;;5052869;28;20466;-71
2021/12/29 03:38:51;;;;;;;0.50;0.50;;;2.60;99.90;;;;;;5052441;28;20475;-70
2021/12/29 03:41:38;;;;;;;0.50;0.50;;;2.50;99.90;;;;;;5053366;28;20461;-72
2021/12/29 03:44:26;;;;;;;0.50;0.50;;;2.40;99.90;;;;;;5052443;28;20501;-70
2021/12/29 03:47:13;;;;;;;1.37;1.30;;;2.40;99.90;;;;;;5052894;28;20460;-70
2021/12/29 03:50:00;;;;;;;0.40;0.40;;;2.30;99.90;;;;;;5052026;28;20747;-70
2021/12/29 03:52:47;;;;;;;0.40;0.40;;;2.30;99.90;;;;;;5054646;28;20986;-70
2021/12/29 03:55:34;;;;;;;0.40;0.40;;;2.20;99.90;;;;;;5055356;28;20450;-70
2021/12/29 03:58:23;;;;;;;0.47;0.47;;;2.20;99.90;;;;;;5052225;28;20417;-69
2021/12/29 04:01:13;;;;;;;0.40;0.40;;;2.20;99.90;;;;;;5052082;28;20456;-70
2021/12/29 04:04:00;;;;;;;0.40;0.40;;;2.30;99.90;;;;;;5050714;28;20463;-70
2021/12/29 04:06:47;;;;;;;0.50;0.50;;;2.30;99.90;;;;;;5051051;28;20841;-70
2021/12/29 04:09:34;;;;;;;0.50;0.50;;;2.50;99.90;;;;;;5051514;28;20452;-70
2021/12/29 04:12:21;;;;;;;0.50;0.50;;;2.60;99.90;;;;;;5054817;28;20991;-69
2021/12/29 04:15:10;;;;;;;0.40;0.40;;;2.70;99.90;;;;;;5072171;28;20446;-70
2021/12/29 04:18:02;;;;;;;0.50;0.50;;;2.80;99.90;;;;;;5072637;28;20957;-69
2021/12/29 04:20:55;;;;;;;1.53;1.53;;;2.90;99.90;;;;;;5071793;28;20439;-70
2021/12/29 04:23:42;;;;;;;0.50;0.50;;;3.00;99.90;;;;;;5072024;28;20446;-69
2021/12/29 04:26:31;;;;;;;0.70;0.70;;;3.00;99.90;;;;;;5072117;28;20434;-69
2021/12/29 04:29:18;;;;;;;0.50;0.50;;;3.20;99.90;;;;;;5071424;28;20477;-69
2021/12/29 04:32:05;;;;;;;0.40;0.40;;;3.30;99.90;;;;;;5074036;28;20446;-70
2021/12/29 04:34:53;;;;;;;0.50;0.50;;;3.40;99.90;;;;;;5075002;28;20802;-69
2021/12/29 04:37:40;;;;;;;0.40;0.40;;;3.60;99.90;;;;;;5075284;28;20407;-70
2021/12/29 04:40:27;;;;;;;0.40;0.40;;;3.50;99.90;;;;;;5074997;28;20489;-69
2021/12/29 04:43:14;;;;;;;0.40;0.40;;;3.60;99.90;;;;;;5075209;28;20432;-70
2021/12/29 04:46:01;;;;;;;0.40;0.40;;;3.80;99.90;;;;;;5075439;28;20423;-70
2021/12/29 04:48:51;;;;;;;0.50;0.50;;;3.80;99.90;;;;;;5074972;28;20462;-71
2021/12/29 04:51:47;;;;;;;0.40;0.40;;;3.80;99.90;;;;;;5075335;28;20419;-71
2021/12/29 04:54:34;;;;;;;0.50;0.50;;;3.70;99.90;;;;;;5075383;28;20789;-70
2021/12/29 04:57:21;;;;;;;0.40;0.40;;;3.60;99.90;;;;;;5075179;28;20419;-70
2021/12/29 05:00:09;;;;;;;0.40;0.40;;;3.40;99.90;;;;;;5075129;28;20415;-70
2021/12/29 05:02:58;;;;;;;0.40;0.40;;;3.30;99.90;;;;;;5054751;28;20852;-70
2021/12/29 05:05:56;;;;;;;0.40;0.40;;;3.20;99.90;;;;;;5053568;28;20420;-70
2021/12/29 05:08:45;;;;;;;0.60;0.60;;;3.30;99.90;;;;;;5053988;28;20468;-70
2021/12/29 05:11:32;;;;;;;0.43;0.43;;;3.40;99.90;;;;;;5054722;28;20428;-70
2021/12/29 05:14:19;;;;;;;0.40;0.40;;;3.50;99.90;;;;;;5054884;28;20440;-71
2021/12/29 05:17:06;;;;;;;0.40;0.40;;;3.70;99.90;;;;;;5054515;28;20481;-70
2021/12/29 05:19:53;;;;;;;0.40;0.40;;;3.80;99.90;;;;;;5053020;28;20445;-70
2021/12/29 05:22:40;;;;;;;0.40;0.40;;;3.80;99.90;;;;;;5054647;28;20505;-70
2021/12/29 05:25:29;;;;;;;0.40;0.40;;;3.90;99.90;;;;;;5054279;28;20468;-69
2021/12/29 05:28:17;;;;;;;0.40;0.40;;;3.90;99.90;;;;;;5053603;28;20555;-71
2021/12/29 05:31:04;;;;;;;0.40;0.40;;;3.90;99.90;;;;;;5054208;28;20429;-70
2021/12/29 05:33:51;;;;;;;0.50;0.50;;;4.00;99.90;;;;;;5054419;28;20510;-70
2021/12/29 05:36:38;;;;;;;0.40;0.40;;;4.00;99.90;;;;;;5054860;28;20428;-70
2021/12/29 05:39:25;;;;;;;0.50;0.50;;;4.10;99.90;;;;;;5054456;28;21006;-70
2021/12/29 05:42:13;;;;;;;0.40;0.40;;;4.20;99.90;;;;;;5054041;28;20613;-70
2021/12/29 05:45:00;;;;;;;0.40;0.40;;;4.20;99.90;;;;;;5054457;28;20999;-71
2021/12/29 05:47:48;;;;;;;0.40;0.40;;;4.30;99.90;;;;;;5053709;28;20464;-70
2021/12/29 05:50:34;;;;;;;0.40;0.40;;;4.50;99.90;;;;;;5053196;28;20933;-70
2021/12/29 05:53:22;;;;;;;0.40;0.40;;;4.40;99.90;;;;;;5053900;28;20451;-70
2021/12/29 05:56:10;;;;;;;0.40;0.40;;;4.40;99.90;;;;;;5054019;28;20451;-70
2021/12/29 05:59:01;;;;;;;0.50;0.50;;;4.40;99.90;;;;;;5053608;28;20416;-70
2021/12/29 06:01:48;;;;;;;0.40;0.40;;;4.40;99.90;;;;;;5066674;28;20454;-70
2021/12/29 06:04:35;;;;;;;0.40;0.40;;;4.40;99.90;;;;;;5073892;28;20827;-71
2021/12/29 06:07:21;;;;;;;0.40;0.40;;;4.40;99.90;;;;;;5073968;28;20424;-71
2021/12/29 06:10:10;;;;;;;0.40;0.40;;;4.30;99.90;;;;;;5073300;28;20453;-70
2021/12/29 06:12:57;;;;;;;0.40;0.40;;;4.40;99.90;;;;;;5073177;28;20496;-70
2021/12/29 06:15:46;;;;;;;0.40;0.40;;;4.40;99.90;;;;;;5074050;28;20915;-70
2021/12/29 06:18:33;;;;;;;0.40;0.40;;;4.30;99.90;;;;;;5073708;28;20412;-71
2021/12/29 06:21:20;;;;;;;0.50;0.50;;;4.40;99.90;;;;;;5073685;28;20427;-70
2021/12/29 06:24:08;;;;;;;0.50;0.50;;;4.40;99.90;;;;;;5074046;28;20423;-70
2021/12/29 06:26:55;;;;;;;0.40;0.40;;;4.40;99.90;;;;;;5073603;28;20514;-70
2021/12/29 06:29:42;;;;;;;0.40;0.40;;;4.40;99.90;;;;;;5072786;28;20422;-71
2021/12/29 06:32:30;;;;;;;0.40;0.40;;;4.40;99.90;;;;;;5072760;28;20435;-70
2021/12/29 06:35:17;;;;;;;0.50;0.50;;;4.40;99.90;;;;;;5073240;28;20541;-70
2021/12/29 06:38:04;;;;;;;0.50;0.50;;;4.50;99.90;;;;;;5073716;28;20859;-70
2021/12/29 06:40:51;;;;;;;0.50;0.50;;;4.60;99.90;;;;;;5074189;28;20477;-70
2021/12/29 06:43:38;;;;;;;0.43;0.43;;;4.60;99.90;;;;;;5073942;28;20459;-70
2021/12/29 06:46:25;;;;;;;0.50;0.50;;;4.70;99.90;;;;;;5073493;28;20422;-70
2021/12/29 06:49:13;;;;;;;0.50;0.50;;;4.60;99.90;;;;;;5074051;28;20497;-70
2021/12/29 06:52:01;;;;;;;0.40;0.40;;;4.70;99.90;;;;;;5076537;28;20841;-70
2021/12/29 06:54:48;;;;;;;0.50;0.50;;;4.70;99.90;;;;;;5075750;28;20457;-71
2021/12/29 06:57:35;;;;;;;0.40;0.40;;;4.70;99.90;;;;;;5073545;28;20842;-70
2021/12/29 07:00:22;;;;;;;0.50;0.50;;;4.70;99.90;;;;;;5071582;28;20431;-70
2021/12/29 07:03:09;;;;;;;0.40;0.40;;;4.70;99.90;;;;;;5052368;28;20890;-70
2021/12/29 07:05:57;;;;;;;0.50;0.50;;;4.80;99.90;;;;;;5051996;28;20432;-70
2021/12/29 07:08:44;;;;;;;0.50;0.50;;;4.80;99.90;;;;;;5051836;28;20879;-70
2021/12/29 07:11:31;;;;;;;0.40;0.40;;;4.80;99.90;;;;;;5051994;28;20424;-70
2021/12/29 07:14:20;;;;;;;0.40;0.40;;;4.80;99.90;;;;;;5052313;28;20467;-70
2021/12/29 07:17:07;;;;;;;0.40;0.40;;;4.90;99.90;;;;;;5051904;28;20957;-70
2021/12/29 07:19:54;;;;;;;0.43;0.43;;;4.90;99.90;;;;;;5051696;28;20420;-70
2021/12/29 07:22:42;;;;;;;0.40;0.40;;;4.90;99.90;;;;;;5051961;28;20577;-70
2021/12/29 07:25:29;;;;;;;0.50;0.50;;;4.90;99.90;;;;;;5051804;28;20513;-71
2021/12/29 07:28:16;;;;;;;0.40;0.40;;;4.90;99.90;;;;;;5051665;28;20464;-70
2021/12/29 07:31:03;;;;;;;0.50;0.50;;;4.90;99.90;;;;;;5051716;28;20514;-70
2021/12/29 07:33:50;;;;;;;0.40;0.40;;;4.90;99.90;;;;;;5051698;28;20448;-70
2021/12/29 07:36:37;;;;;;;0.50;0.50;;;5.00;99.90;;;;;;5051684;28;20773;-70
2021/12/29 07:39:25;;;;;;;0.40;0.40;;;5.00;99.90;;;;;;5051388;28;20424;-71
2021/12/29 07:42:12;;;;;;;0.40;0.40;;;5.10;99.90;;;;;;5051747;28;20444;-71
2021/12/29 07:44:59;;;;;;;0.40;0.40;;;5.10;99.90;;;;;;5052206;28;20439;-70
2021/12/29 07:47:48;;;;;;;0.43;0.43;;;4.90;99.90;;;;;;5052282;28;20417;-71
2021/12/29 07:50:35;;;;;;;0.40;0.40;;;5.00;99.90;;;;;;5051074;28;20437;-71
2021/12/29 07:53:22;;;;;;;0.40;0.40;;;5.20;99.90;;;;;;5051185;28;20448;-71
2021/12/29 07:56:12;;;;;;;0.40;0.40;;;5.10;99.90;;;;;;5052073;28;20935;-70
2021/12/29 07:58:59;;;;;;;0.40;0.40;;;5.10;99.90;;;;;;5050970;28;20424;-71
2021/12/29 08:01:46;;;;;;;0.40;0.40;;;5.20;99.90;;;;;;5064496;28;20492;-70
2021/12/29 08:04:33;;;;;;;0.40;0.40;;;5.10;99.90;;;;;;5072074;28;20510;-70
2021/12/29 08:07:20;;;;;;;0.40;0.40;;;5.20;99.90;;;;;;5074647;28;20429;-69
2021/12/29 08:10:07;;;;;;;0.40;0.40;;;5.20;99.90;;;;;;5075395;28;20470;-69
2021/12/29 08:12:56;;;;;;;0.40;0.40;;;5.30;99.90;;;;;;5074456;28;20439;-70
2021/12/29 08:15:43;;;;;;;0.40;0.40;;;5.20;99.90;;;;;;5075614;28;20461;-70
2021/12/29 08:18:30;;;;;;;0.50;0.50;;;5.30;99.90;;;;;;5075152;28;20415;-72
2021/12/29 08:21:17;;;;;;;0.40;0.40;;;5.30;99.90;;;;;;5075234;28;20419;-70
2021/12/29 08:24:04;;;;;;;0.40;0.40;;;5.50;99.90;;;;;;5075324;28;20528;-72
2021/12/29 08:26:51;;;;;;;0.40;0.40;;;5.40;99.90;;;;;;5075385;28;20426;-71
2021/12/29 08:29:41;;;;;;;0.40;0.40;;;5.40;99.90;;;;;;5075369;28;20469;-71
2021/12/29 08:32:28;;;;;;;0.40;0.40;;;5.40;99.90;;;;;;5074893;28;20439;-72
2021/12/29 08:35:15;;;;;;;0.40;0.40;;;5.50;99.90;;;;;;5075342;28;20777;-70
2021/12/29 08:38:03;;;;;;;0.40;0.40;;;5.50;99.90;;;;;;5075145;28;20418;-71
2021/12/29 08:40:51;;;;;;;0.40;0.40;;;5.50;99.90;;;;;;5074344;28;20478;-71
2021/12/29 08:43:38;;;;;;;0.40;0.40;;;5.60;99.90;;;;;;5074536;28;20439;-71
2021/12/29 08:46:28;;;;;;;0.40;0.40;;;5.60;99.90;;;;;;5075346;28;20423;-71
2021/12/29 08:49:15;;;;;;;0.40;0.40;;;5.70;99.90;;;;;;5075559;28;20459;-71
2021/12/29 08:52:02;;;;;;;0.40;0.40;;;5.60;99.90;;;;;;5074444;28;20532;-70
2021/12/29 08:54:49;;;;;;;0.40;0.40;;;5.60;99.90;;;;;;5075237;28;20438;-70
2021/12/29 08:57:36;;;;;;;0.40;0.40;;;5.60;99.90;;;;;;5074663;28;20784;-70
2021/12/29 09:00:23;;;;;;;0.40;0.40;;;5.60;99.90;;;;;;5072928;28;20473;-71
2021/12/29 09:03:12;;;;;;;0.40;0.40;;;5.60;99.90;;;;;;5055367;28;20843;-71
2021/12/29 09:05:59;;;;;;;0.40;0.40;;;5.70;99.90;;;;;;5053522;28;20788;-70
2021/12/29 09:08:47;;;;;;;0.50;0.50;;;5.60;99.90;;;;;;5053671;28;20502;-69
2021/12/29 09:11:34;;;;;;;0.40;0.40;;;5.70;99.90;;;;;;5055514;28;20945;-70
2021/12/29 09:14:21;;;;;;;0.40;0.40;;;5.70;99.90;;;;;;5053952;28;20478;-70
2021/12/29 09:17:08;;;;;;;0.40;0.40;;;5.70;99.90;;;;;;5053409;28;20497;-71
2021/12/29 09:19:56;;;;;;;0.40;0.40;;;5.70;99.90;;;;;;5053699;28;20451;-70
2021/12/29 09:22:44;;;;;;;2.80;2.70;;;5.70;99.90;;;;;;5053860;28;20835;-70
2021/12/29 09:25:31;;;;;;;0.50;0.50;;;5.80;99.90;;;;;;5053441;28;20929;-70
2021/12/29 09:28:19;;;;;;;1.77;1.73;;;5.90;99.90;;;;;;5053700;28;20942;-70
2021/12/29 09:31:07;;;;;;;0.40;0.40;;;6.00;99.90;;;;;;5054215;28;20420;-71
2021/12/29 09:33:56;;;;;;;0.40;0.40;;;5.90;99.90;;;;;;5054958;28;20440;-70
2021/12/29 09:36:44;;;;;;;0.43;0.43;;;6.00;99.90;;;;;;5054964;28;20884;-71
2021/12/29 09:39:31;;;;;;;0.40;0.40;;;6.10;99.90;;;;;;5054316;28;20488;-70
2021/12/29 09:42:18;;;;;;;0.50;0.50;;;6.10;99.90;;;;;;5055754;28;20455;-71
2021/12/29 09:45:07;;;;;;;0.40;0.40;;;6.10;99.90;;;;;;5054240;28;20828;-70
2021/12/29 09:47:57;;;;;;;0.40;0.40;;;6.10;99.90;;;;;;5055108;28;20428;-71
2021/12/29 09:50:45;;;;;;;0.40;0.40;;;6.10;99.90;;;;;;5052901;28;21054;-71
2021/12/29 09:53:34;;;;;;;0.40;0.40;;;6.20;99.90;;;;;;5053770;28;20440;-70
2021/12/29 09:56:21;;;;;;;0.40;0.40;;;6.10;99.90;;;;;;5053733;28;20466;-70
2021/12/29 09:59:08;;;;;;;0.50;0.50;;;6.20;99.90;;;;;;5053908;28;20416;-70
2021/12/29 10:01:55;;;;;;;0.40;0.40;;;6.30;99.90;;;;;;5067382;28;20423;-70
2021/12/29 10:04:45;;;;;;;0.40;0.40;;;6.40;99.90;;;;;;5074952;28;20561;-70
2021/12/29 10:07:32;;;;;;;0.40;0.40;;;6.50;99.90;;;;;;5056773;28;20557;-70
2021/12/29 10:10:23;;;;;;;0.40;0.40;;;6.80;99.90;;;;;;5055798;28;20963;-70
2021/12/29 10:13:10;;;;;;;0.40;0.40;;;6.80;99.90;;;;;;5055246;28;20460;-70
2021/12/29 10:16:02;;;;;;;0.50;0.50;;;6.90;99.90;;;;;;5055028;28;20455;-70
2021/12/29 10:18:54;;;;;;;0.50;0.50;;;7.00;99.90;;;;;;5055695;28;20727;-74
2021/12/29 10:21:43;;;;;;;1.20;1.20;;;7.10;99.90;;;;;;5055890;28;20499;-71
2021/12/29 10:24:30;;;;;;;0.40;0.40;;;7.10;99.90;;;;;;5056722;28;20428;-71
2021/12/29 10:27:19;;;;;;;0.40;0.40;;;7.10;99.90;;;;;;5056423;28;20431;-71
2021/12/29 10:30:18;;;;;;;0.40;0.40;;;7.20;99.90;;;;;;5054397;28;20995;-71
2021/12/29 10:33:13;;;;;;;0.40;0.40;;;7.20;99.90;;;;;;5055236;28;20494;-70
2021/12/29 10:36:11;;;;;;;0.60;0.60;;;7.30;99.90;;;;;;5055301;28;20416;-70
2021/12/29 10:39:04;;;;;;;0.60;0.60;;;7.30;99.90;;;;;;5056203;28;20439;-71
2021/12/29 10:41:55;;;;;;;0.50;0.50;;;7.40;99.90;;;;;;5056655;28;21009;-72
2021/12/29 10:44:45;;;;;;;0.40;0.40;;;7.40;99.90;;;;;;5055884;28;20513;-71
2021/12/29 10:47:33;;;;;;;0.40;0.40;;;7.40;99.90;;;;;;5056148;28;20420;-71
2021/12/29 10:50:20;;;;;;;0.40;0.40;;;7.50;99.90;;;;;;5056610;28;21023;-71
2021/12/29 10:53:07;;;;;;;0.40;0.40;;;7.60;99.90;;;;;;5055939;28;20440;-72
2021/12/29 10:55:54;;;;;;;0.40;0.40;;;7.50;99.90;;;;;;5055314;28;20838;-71
2021/12/29 10:58:41;;;;;;;0.40;0.40;;;7.60;99.90;;;;;;5055346;28;20870;-71
2021/12/29 11:01:36;;;;;;;0.40;0.40;;;7.60;99.90;;;;;;5056904;28;20424;-71
2021/12/29 11:04:25;;;;;;;0.40;0.40;;;7.60;99.90;;;;;;5054654;28;20420;-71
2021/12/29 11:07:14;;;;;;;0.40;0.40;;;7.60;99.90;;;;;;5053827;28;20517;-71
2021/12/29 11:10:09;;;;;;;0.40;0.40;;;7.40;99.90;;;;;;5054221;28;20577;-70
2021/12/29 11:12:56;;;;;;;0.40;0.40;;;7.30;99.90;;;;;;5054668;28;20462;-71
2021/12/29 11:15:43;;;;;;;0.40;0.40;;;7.40;99.90;;;;;;5054671;28;20439;-71
2021/12/29 11:18:44;;;;;;;0.50;0.50;;;7.30;99.90;;;;;;5054353;28;20921;-71
2021/12/29 11:21:33;;;;;;;0.40;0.40;;;7.20;99.90;;;;;;5053506;28;20416;-72
2021/12/29 11:24:23;;;;;;;0.40;0.40;;;7.20;99.90;;;;;;5053293;28;20862;-71
2021/12/29 11:27:12;;;;;;;0.40;0.40;;;7.20;99.90;;;;;;5052954;28;20416;-71
2021/12/29 11:30:02;;;;;;;0.50;0.50;;;7.10;99.90;;;;;;5053091;28;20985;-73
2021/12/29 11:32:50;;;;;;;0.40;0.40;;;7.00;99.90;;;;;;5052579;28;20822;-71
2021/12/29 11:35:43;;;;;;;0.40;0.40;;;7.10;99.90;;;;;;5054182;28;20432;-71
2021/12/29 11:38:30;;;;;;;0.40;0.40;;;7.00;99.90;;;;;;5053098;28;20427;-71
2021/12/29 11:41:19;;;;;;;0.40;0.40;;;7.00;99.90;;;;;;5054663;28;20819;-71
2021/12/29 11:44:06;;;;;;;0.40;0.40;;;7.00;99.90;;;;;;5056192;28;20440;-71
2021/12/29 11:46:53;;;;;;;1.23;1.23;;;7.00;99.90;;;;;;5056407;28;20428;-71
2021/12/29 11:49:40;;;;;;;0.40;0.40;;;7.00;99.90;;;;;;5055448;28;20483;-71
2021/12/29 11:52:44;;;;;;;0.40;0.40;;;7.00;99.90;;;;;;5056284;28;20440;-70
2021/12/29 11:55:33;;;;;;;0.40;0.40;;;7.10;99.90;;;;;;5056196;28;20432;-70
2021/12/29 11:58:26;;;;;;;1.43;1.43;;;7.10;99.90;;;;;;5055834;28;20472;-71
2021/12/29 12:01:16;;;;;;;1.07;1.07;;;7.10;99.90;;;;;;5063884;28;20427;-71
2021/12/29 12:04:05;;;;;;;1.97;1.73;;;7.20;99.90;;;;;;5076739;28;20466;-71
2021/12/29 12:07:02;;;;;;;0.40;0.40;;;7.10;99.90;;;;;;5075629;28;20455;-71
2021/12/29 12:09:51;;;;;;;0.40;0.40;;;6.90;99.90;;;;;;5075953;28;20460;-71
2021/12/29 12:12:41;;;;;;;0.50;0.50;;;7.00;99.90;;;;;;5077557;28;20447;-72
2021/12/29 12:15:33;;;;;;;0.70;0.70;;;7.00;99.90;;;;;;5077416;28;20421;-71
2021/12/29 12:18:20;;;;;;;15.67;1.67;;;6.90;99.90;;;;;;5076946;28;20415;-71
2021/12/29 12:21:07;;;;;;;0.50;0.50;;;6.80;99.90;;;;;;5077817;28;20419;-70
2021/12/29 12:23:54;;;;;;;4.80;0.90;;;6.80;99.90;;;;;;5080451;28;20455;-71
2021/12/29 12:26:55;;;;;;;0.73;0.73;;;6.80;99.90;;;;;;5079306;28;20472;-71
2021/12/29 12:29:44;;;;;;;0.60;0.60;;;6.70;99.90;;;;;;5078943;28;20483;-71
2021/12/29 12:32:41;;;;;;;0.70;0.60;;;6.80;99.90;;;;;;5079863;28;20478;-70
2021/12/29 12:35:30;;;;;;;0.50;0.50;;;6.70;99.90;;;;;;5077020;28;20453;-70
2021/12/29 12:38:22;;;;;;;0.70;0.70;;;6.80;99.90;;;;;;5075963;28;20488;-71
2021/12/29 12:41:12;;;;;;;5.60;0.90;;;6.80;99.90;;;;;;5075469;28;20423;-71
2021/12/29 12:44:03;;;;;;;0.40;0.40;;;6.80;99.90;;;;;;5075355;28;20446;-71
2021/12/29 12:46:51;;;;;;;0.40;0.40;;;6.80;99.90;;;;;;5076089;28;20947;-71
2021/12/29 12:49:45;;;;;;;0.40;0.40;;;6.80;99.90;;;;;;5074982;28;20461;-71
2021/12/29 12:52:42;;;;;;;0.47;0.47;;;6.70;99.90;;;;;;5074798;28;21040;-71
2021/12/29 12:55:32;;;;;;;0.40;0.40;;;6.80;99.90;;;;;;5074020;28;20431;-71
2021/12/29 12:58:22;;;;;;;0.50;0.50;;;6.80;99.90;;;;;;5075421;28;20423;-70
2021/12/29 13:01:13;;;;;;;1.63;1.50;;;6.90;99.90;;;;;;5067389;28;20416;-70
2021/12/29 13:04:03;;;;;;;0.40;0.40;;;6.80;99.90;;;;;;5054836;28;20532;-71
2021/12/29 13:06:52;;;;;;;0.60;0.60;;;6.90;99.90;;;;;;5054668;28;20456;-71
2021/12/29 13:09:46;;;;;;;1.60;1.20;;;6.80;99.90;;;;;;5053771;28;20452;-70
2021/12/29 13:12:36;;;;;;;0.40;0.40;;;6.70;99.90;;;;;;5054125;28;20443;-70
2021/12/29 13:15:24;;;;;;;0.50;0.50;;;6.70;99.90;;;;;;5055243;28;20825;-71
2021/12/29 13:18:15;;;;;;;0.60;0.60;;;6.70;99.90;;;;;;5054604;28;20424;-71
2021/12/29 13:21:06;;;;;;;0.40;0.40;;;6.70;99.90;;;;;;5054287;28;20571;-70
2021/12/29 13:23:58;;;;;;;0.83;0.80;;;6.70;99.90;;;;;;5053929;28;20451;-71
2021/12/29 13:26:48;;;;;;;2.40;2.20;;;6.70;99.90;;;;;;5055180;28;20760;-70
2021/12/29 13:29:34;;;;;;;0.40;0.40;;;6.70;99.90;;;;;;5053526;28;20427;-71
2021/12/29 13:32:21;;;;;;;0.60;0.60;;;6.70;99.90;;;;;;5055048;28;20444;-70
2021/12/29 13:35:10;;;;;;;0.70;0.70;;;6.70;99.90;;;;;;5054418;28;20479;-71
2021/12/29 13:37:59;;;;;;;0.60;0.60;;;6.70;99.90;;;;;;5054322;28;20779;-71
2021/12/29 13:40:49;;;;;;;0.57;0.57;;;6.70;99.90;;;;;;5055062;28;20435;-71
2021/12/29 13:43:39;;;;;;;0.40;0.40;;;6.60;99.90;;;;;;5054060;28;20451;-72
2021/12/29 13:46:27;;;;;;;1.03;1.00;;;6.60;99.90;;;;;;5053580;28;20423;-72
2021/12/29 13:49:14;;;;;;;1.70;1.10;;;6.70;99.90;;;;;;5053668;28;20860;-70
2021/12/29 13:52:04;;;;;;;0.50;0.50;;;6.60;99.90;;;;;;5053472;28;20416;-71
2021/12/29 13:54:52;;;;;;;0.80;0.80;;;6.60;99.90;;;;;;5053983;28;20420;-71
2021/12/29 13:57:40;;;;;;;0.80;0.80;;;6.60;99.90;;;;;;5053926;28;20448;-70
2021/12/29 14:00:29;;;;;;;1.37;1.00;;;6.50;99.90;;;;;;5055078;28;20933;-71
2021/12/29 14:03:16;;;;;;;0.40;0.40;;;6.60;99.90;;;;;;5073127;28;20456;-72
2021/12/29 14:06:05;;;;;;;1.20;1.10;;;6.60;99.90;;;;;;5074115;28;20431;-71
2021/12/29 14:08:54;;;;;;;2.20;2.10;;;6.60;99.90;;;;;;5073813;28;20427;-70
2021/12/29 14:11:42;;;;;;;0.40;0.40;;;6.60;99.90;;;;;;5073357;28;20467;-69
2021/12/29 14:14:29;;;;;;;0.40;0.40;;;6.50;99.90;;;;;;5073897;28;20425;-71
2021/12/29 14:17:19;;;;;;;0.60;0.60;;;6.50;99.90;;;;;;5074201;28;20465;-71
2021/12/29 14:20:09;;;;;;;0.40;0.40;;;6.50;99.90;;;;;;5073895;28;20506;-70
2021/12/29 14:23:03;;;;;;;0.40;0.40;;;6.50;99.90;;;;;;5074006;28;20447;-71
2021/12/29 14:25:51;;;;;;;0.70;0.70;;;6.50;99.90;;;;;;5073590;28;20419;-71
2021/12/29 14:28:39;;;;;;;0.40;0.40;;;6.50;99.90;;;;;;5073385;28;20420;-71
2021/12/29 14:31:36;;;;;;;1.63;1.63;;;6.40;99.90;;;;;;5072745;28;20989;-70
2021/12/29 14:34:26;;;;;;;0.40;0.40;;;6.50;99.90;;;;;;5073064;28;21001;-69
2021/12/29 14:37:15;;;;;;;2.50;1.57;;;6.50;99.90;;;;;;5072917;28;20427;-70
2021/12/29 14:40:02;;;;;;;0.40;0.40;;;6.50;99.90;;;;;;5072347;28;20423;-71
2021/12/29 14:42:51;;;;;;;0.43;0.43;;;6.40;99.90;;;;;;5072769;28;20451;-70
2021/12/29 14:45:47;;;;;;;0.40;0.40;;;6.50;99.90;;;;;;5073166;28;20431;-71
2021/12/29 14:48:34;;;;;;;0.40;0.40;;;6.40;99.90;;;;;;5072494;28;20435;-73